createdAt,value
2019-01-21T00:01:20.702Z,65.27
2019-01-21T00:04:29.208Z,64.80
2019-01-21T00:06:57.249Z,63.23
2019-01-21T00:12:20.356Z,64.83
2019-01-21T00:14:48.751Z,60.80
2019-01-21T00:17:22.274Z,68.20
2019-01-21T00:19:46.957Z,63.30
2019-01-21T00:22:55.402Z,68.30
2019-01-21T00:26:03.490Z,69.30
2019-01-21T00:28:31.917Z,62.20
2019-01-21T00:31:00.080Z,65.23
2019-01-21T00:34:08.538Z,67.17
2019-01-21T00:36:36.276Z,67.63
2019-01-21T00:39:45.038Z,70.60
2019-01-21T00:42:13.571Z,66.20
2019-01-21T00:45:21.769Z,67.47
2019-01-21T00:47:49.805Z,60.00
2019-01-21T00:50:17.958Z,65.77
2019-01-21T00:55:54.157Z,66.63
2019-01-21T00:58:41.484Z,67.47
2019-01-21T01:01:49.945Z,68.93
2019-01-21T01:04:58.031Z,66.80
2019-01-21T01:07:26.481Z,67.20
2019-01-21T01:09:55.066Z,65.03
2019-01-21T01:13:03.272Z,66.80
2019-01-21T01:15:31.312Z,67.33
2019-01-21T01:18:39.140Z,66.07
2019-01-21T01:21:07.513Z,64.80
2019-01-21T01:23:35.663Z,62.70
2019-01-21T01:26:04.084Z,61.13
2019-01-21T01:28:31.926Z,66.67
2019-01-21T01:31:00.422Z,72.80
2019-01-21T01:33:28.811Z,72.00
2019-01-21T01:35:57.382Z,75.27
2019-01-21T01:39:05.867Z,71.83
2019-01-21T01:44:29.151Z,74.13
2019-01-21T01:46:57.657Z,69.27
2019-01-21T01:50:06.188Z,78.50
2019-01-21T01:56:12.050Z,70.77
2019-01-21T01:58:40.463Z,75.27
2019-01-21T02:01:08.954Z,68.23
2019-01-21T02:06:32.030Z,60.73
2019-01-21T02:08:59.781Z,63.07
2019-01-21T02:11:27.527Z,67.77
2019-01-21T02:13:57.587Z,65.50
2019-01-21T02:16:26.074Z,62.77
2019-01-21T02:18:54.320Z,62.20
2019-01-21T02:22:02.846Z,63.67
2019-01-21T02:25:12.898Z,65.90
2019-01-21T02:28:19.102Z,75.92
2019-01-21T02:31:25.580Z,70.03
2019-01-21T02:34:31.769Z,65.70
2019-01-21T02:37:38.296Z,68.53
2019-01-21T02:40:44.563Z,68.90
2019-01-21T02:43:40.561Z,69.80
2019-01-21T02:47:00.760Z,66.60
2019-01-21T02:49:55.065Z,61.83
2019-01-21T02:53:03.576Z,68.43
2019-01-21T02:56:16.897Z,72.30
2019-01-21T02:59:23.188Z,65.77
2019-01-21T03:02:29.703Z,69.77
2019-01-21T03:05:43.532Z,73.00
2019-01-21T03:08:50.026Z,67.33
2019-01-21T03:11:56.217Z,63.67
2019-01-21T03:15:08.347Z,67.03
2019-01-21T03:20:29.633Z,71.83
2019-01-21T03:23:23.718Z,66.70
2019-01-21T03:26:30.251Z,70.43
2019-01-21T03:29:36.822Z,66.97
2019-01-21T03:32:45.278Z,70.07
2019-01-21T03:35:51.811Z,81.00
2019-01-21T03:38:58.380Z,68.10
2019-01-21T03:42:04.624Z,67.03
2019-01-21T03:45:11.658Z,68.97
2019-01-21T03:51:20.769Z,72.43
2019-01-21T03:57:26.295Z,73.10
2019-01-21T04:04:12.404Z,75.40
2019-01-21T04:07:32.483Z,71.70
2019-01-21T04:10:38.997Z,72.17
2019-01-21T04:13:45.242Z,71.50
2019-01-21T04:16:52.070Z,70.87
2019-01-21T04:19:42.718Z,71.13
2019-01-21T04:22:49.282Z,77.47
2019-01-21T04:25:56.222Z,71.90
2019-01-21T04:29:02.961Z,68.03
2019-01-21T04:32:09.642Z,75.13
2019-01-21T04:35:15.892Z,68.93
2019-01-21T04:38:22.624Z,71.87
2019-01-21T04:41:16.061Z,63.23
2019-01-21T04:44:22.828Z,73.17
2019-01-21T04:47:31.017Z,76.33
2019-01-21T04:50:22.858Z,74.73
2019-01-21T04:53:29.062Z,69.63
2019-01-21T04:56:44.364Z,77.13
2019-01-21T04:59:50.899Z,71.20
2019-01-21T05:02:57.440Z,71.27
2019-01-21T05:06:03.965Z,73.73
2019-01-21T05:09:10.494Z,71.93
2019-01-21T05:12:17.085Z,74.83
2019-01-21T05:15:32.924Z,78.47
2019-01-21T05:18:41.259Z,69.20
2019-01-21T05:21:47.647Z,67.77
2019-01-21T05:24:54.143Z,65.73
2019-01-21T05:28:00.687Z,67.60
2019-01-21T05:31:07.217Z,69.27
2019-01-21T05:34:08.827Z,75.57
2019-01-21T05:37:15.364Z,74.87
2019-01-21T05:40:21.918Z,66.40
2019-01-21T05:43:28.455Z,68.17
2019-01-21T05:46:35.049Z,73.90
2019-01-21T05:49:41.250Z,66.90
2019-01-21T05:52:47.465Z,71.97
2019-01-21T05:55:53.640Z,76.20
2019-01-21T05:58:54.516Z,81.07
2019-01-21T06:02:01.059Z,74.27
2019-01-21T06:05:07.037Z,77.00
2019-01-21T06:08:13.573Z,88.40
2019-01-21T06:11:26.392Z,82.30
2019-01-21T06:14:33.018Z,78.90
2019-01-21T06:17:23.527Z,70.03
2019-01-21T06:20:35.934Z,77.07
2019-01-21T06:23:26.892Z,76.87
2019-01-21T06:26:33.469Z,74.47
2019-01-21T06:29:24.156Z,81.83
2019-01-21T06:32:30.352Z,77.30
2019-01-21T06:35:36.564Z,79.33
2019-01-21T06:38:43.294Z,79.67
2019-01-21T06:41:49.835Z,77.23
2019-01-21T06:44:56.397Z,79.33
2019-01-21T06:48:02.906Z,76.53
2019-01-21T06:51:09.418Z,76.10
2019-01-21T06:54:15.917Z,70.90
2019-01-21T06:57:22.483Z,80.07
2019-01-21T07:00:13.829Z,74.43
2019-01-21T07:03:20.408Z,72.00
2019-01-21T07:06:34.157Z,70.17
2019-01-21T07:09:25.872Z,78.00
2019-01-21T07:12:32.417Z,71.93
2019-01-21T07:15:38.947Z,69.10
2019-01-21T07:18:45.157Z,74.13
2019-01-21T07:21:51.690Z,70.43
2019-01-21T07:24:50.716Z,71.87
2019-01-21T07:27:57.229Z,67.83
2019-01-21T07:31:03.782Z,66.07
2019-01-21T07:34:10.080Z,65.50
2019-01-21T07:37:16.624Z,67.00
2019-01-21T07:40:08.250Z,72.63
2019-01-21T07:43:14.895Z,68.77
2019-01-21T07:46:21.433Z,78.03
2019-01-21T07:49:27.637Z,79.90
2019-01-21T07:52:34.168Z,78.03
2019-01-21T07:55:47.312Z,72.00
2019-01-21T07:58:54.035Z,71.63
2019-01-21T08:01:47.423Z,63.03
2019-01-21T08:04:53.988Z,62.37
2019-01-21T08:08:05.718Z,67.17
2019-01-21T08:11:11.923Z,66.90
2019-01-21T08:14:18.469Z,71.47
2019-01-21T08:20:52.415Z,138.60
2019-01-21T08:23:58.684Z,94.70
2019-01-21T08:27:05.382Z,321.57
2019-01-21T08:30:11.643Z,180.90
2019-01-21T08:33:18.308Z,77.17
2019-01-21T08:36:38.826Z,76.70
2019-01-21T08:39:45.364Z,722.83
2019-01-21T08:42:51.673Z,500.10
2019-01-21T08:46:13.331Z,485.93
2019-01-21T08:49:03.593Z,706.93
2019-01-21T08:52:10.118Z,226.87
2019-01-21T08:55:01.218Z,122.30
2019-01-21T08:58:07.768Z,139.23
2019-01-21T09:01:14.040Z,81.70
2019-01-21T09:04:20.573Z,79.30
2019-01-21T09:07:27.058Z,79.47
2019-01-21T09:10:33.588Z,81.43
2019-01-21T09:13:28.280Z,81.73
2019-01-21T09:16:19.875Z,89.53
2019-01-21T09:19:26.404Z,121.97
2019-01-21T09:22:25.719Z,83.93
2019-01-21T09:25:32.233Z,113.37
2019-01-21T09:28:38.477Z,119.80
2019-01-21T09:31:45.036Z,229.57
2019-01-21T09:34:51.569Z,419.63
2019-01-21T09:37:41.473Z,175.50
2019-01-21T09:40:47.406Z,118.80
2019-01-21T09:43:49.114Z,71.47
2019-01-21T09:47:03.912Z,73.23
2019-01-21T09:49:30.599Z,77.37
2019-01-21T09:52:18.420Z,68.20
2019-01-21T09:54:46.838Z,101.90
2019-01-21T09:57:18.499Z,68.97
2019-01-21T10:00:27.606Z,71.27
2019-01-21T10:03:36.015Z,72.13
2019-01-21T10:06:46.182Z,74.93
2019-01-21T10:10:01.106Z,55.43
2019-01-21T10:13:07.591Z,60.70
2019-01-21T10:16:01.247Z,62.63
2019-01-21T10:19:18.688Z,60.67
2019-01-21T10:22:25.238Z,58.50
2019-01-21T10:25:31.544Z,61.40
2019-01-21T10:28:38.084Z,52.90
2019-01-21T10:31:44.619Z,53.50
2019-01-21T10:34:51.130Z,83.67
2019-01-21T10:37:57.345Z,61.27
2019-01-21T10:40:47.032Z,63.73
2019-01-21T10:43:47.373Z,64.97
2019-01-21T10:46:53.309Z,68.67
2019-01-21T10:49:59.534Z,66.43
2019-01-21T10:53:00.234Z,67.70
2019-01-21T10:56:06.423Z,71.57
2019-01-21T10:58:49.539Z,78.27
2019-01-21T11:01:50.573Z,72.77
2019-01-21T11:04:32.876Z,92.27
2019-01-21T11:07:39.417Z,76.87
2019-01-21T11:10:30.596Z,73.23
2019-01-21T11:13:21.526Z,69.83
2019-01-21T11:19:46.945Z,65.97
2019-01-21T11:22:42.078Z,59.90
2019-01-21T11:25:48.846Z,65.07
2019-01-21T11:28:55.380Z,52.70
2019-01-21T11:31:45.311Z,47.27
2019-01-21T11:34:37.489Z,48.33
2019-01-21T11:37:43.730Z,47.37
2019-01-21T11:40:33.925Z,31.93
2019-01-21T11:43:40.641Z,49.73
2019-01-21T11:46:46.963Z,48.70
2019-01-21T11:49:53.324Z,43.10
2019-01-21T11:52:59.492Z,41.77
2019-01-21T11:56:06.074Z,45.17
2019-01-21T11:58:57.221Z,42.50
2019-01-21T12:01:35.549Z,36.13
2019-01-21T12:04:26.165Z,34.80
2019-01-21T12:07:19.696Z,33.07
2019-01-21T12:10:11.461Z,33.20
2019-01-21T12:13:17.950Z,34.43
2019-01-21T12:16:12.106Z,31.73
2019-01-21T12:19:18.625Z,35.70
2019-01-21T12:22:25.129Z,39.23
2019-01-21T12:25:39.081Z,38.03
2019-01-21T12:28:39.994Z,36.33
2019-01-21T12:31:52.273Z,43.90
2019-01-21T12:35:06.219Z,38.73
2019-01-21T12:38:01.395Z,43.17
2019-01-21T12:41:21.669Z,38.43
2019-01-21T12:44:26.509Z,42.33
2019-01-21T12:47:32.723Z,43.73
2019-01-21T12:50:38.627Z,40.13
2019-01-21T12:53:32.970Z,42.00
2019-01-21T12:56:39.554Z,47.40
2019-01-21T12:59:45.740Z,50.13
2019-01-21T13:02:25.860Z,55.83
2019-01-21T13:05:32.239Z,51.20
2019-01-21T13:08:44.474Z,59.00
2019-01-21T13:11:51.046Z,51.60
2019-01-21T13:14:57.286Z,50.93
2019-01-21T13:18:03.488Z,48.07
2019-01-21T13:21:09.463Z,50.63
2019-01-21T13:24:31.266Z,50.90
2019-01-21T13:27:37.308Z,50.33
2019-01-21T13:30:43.840Z,54.10
2019-01-21T13:33:35.230Z,56.07
2019-01-21T13:36:41.803Z,56.10
2019-01-21T13:39:48.360Z,62.67
2019-01-21T13:42:58.814Z,62.20
2019-01-21T13:45:50.508Z,60.97
2019-01-21T13:48:40.684Z,63.53
2019-01-21T13:51:58.619Z,63.07
2019-01-21T13:54:50.049Z,71.27
2019-01-21T13:57:56.599Z,75.87
2019-01-21T14:01:03.137Z,64.97
2019-01-21T14:07:43.444Z,82.33
2019-01-21T14:10:36.599Z,58.77
2019-01-21T14:13:27.158Z,60.50
2019-01-21T14:16:33.677Z,61.47
2019-01-21T14:19:40.350Z,60.97
2019-01-21T14:22:36.109Z,61.30
2019-01-21T14:25:42.610Z,70.87
2019-01-21T14:29:01.139Z,65.90
2019-01-21T14:32:16.295Z,60.53
2019-01-21T14:35:22.498Z,78.77
2019-01-21T14:38:34.883Z,85.50
2019-01-21T14:41:41.139Z,73.60
2019-01-21T14:44:47.669Z,67.40
2019-01-21T14:47:54.201Z,67.40
2019-01-21T14:51:00.680Z,63.03
2019-01-21T14:54:07.274Z,66.67
2019-01-21T14:57:18.539Z,61.23
2019-01-21T15:00:24.816Z,64.03
2019-01-21T15:03:31.091Z,56.37
2019-01-21T15:06:37.642Z,65.00
2019-01-21T15:09:44.181Z,64.37
2019-01-21T15:12:50.718Z,69.40
2019-01-21T15:15:57.229Z,67.97
2019-01-21T15:18:47.542Z,66.83
2019-01-21T15:21:54.046Z,65.53
2019-01-21T15:25:00.402Z,67.23
2019-01-21T15:27:55.520Z,73.27
2019-01-21T15:30:55.826Z,66.73
2019-01-21T15:34:02.433Z,66.90
2019-01-21T15:36:53.501Z,66.30
2019-01-21T15:39:59.795Z,66.93
2019-01-21T15:43:06.062Z,77.57
2019-01-21T15:46:12.635Z,65.00
2019-01-21T15:49:19.122Z,63.33
2019-01-21T15:52:25.659Z,70.83
2019-01-21T15:55:32.389Z,68.50
2019-01-21T15:58:38.572Z,61.73
2019-01-21T16:01:44.978Z,72.33
2019-01-21T16:04:25.240Z,76.13
2019-01-21T16:10:57.740Z,135.33
2019-01-21T16:14:04.267Z,67.57
2019-01-21T16:16:57.761Z,63.93
2019-01-21T16:19:49.226Z,58.93
2019-01-21T16:22:55.767Z,67.03
2019-01-21T16:26:02.290Z,61.90
2019-01-21T16:29:08.933Z,62.07
2019-01-21T16:32:15.520Z,58.53
2019-01-21T16:35:26.595Z,63.93
2019-01-21T16:38:32.855Z,57.50
2019-01-21T16:41:39.141Z,61.70
2019-01-21T16:46:41.300Z,65.33
2019-01-21T16:49:09.410Z,64.80
2019-01-21T16:51:37.949Z,63.60
2019-01-21T16:54:05.727Z,65.70
2019-01-21T16:56:34.121Z,63.57
2019-01-21T16:59:01.582Z,61.10
2019-01-21T17:01:29.771Z,62.00
2019-01-21T17:06:53.017Z,64.37
2019-01-21T17:09:21.623Z,75.37
2019-01-21T17:12:29.827Z,71.27
2019-01-21T17:15:38.346Z,84.70
2019-01-21T17:18:06.868Z,70.07
2019-01-21T17:21:15.401Z,62.93
2019-01-21T17:24:23.912Z,64.23
2019-01-21T17:29:32.481Z,65.30
2019-01-21T17:32:01.020Z,65.63
2019-01-21T17:34:28.792Z,72.63
2019-01-21T17:39:52.822Z,93.43
2019-01-21T17:42:20.951Z,110.27
2019-01-21T17:44:49.648Z,118.60
2019-01-21T17:47:17.857Z,170.00
2019-01-21T17:49:45.633Z,133.63
2019-01-21T17:52:13.961Z,131.53
2019-01-21T17:54:42.421Z,90.90
2019-01-21T17:57:10.483Z,79.83
2019-01-21T17:59:38.682Z,79.77
2019-01-21T18:02:06.893Z,77.03
2019-01-21T18:04:35.296Z,66.07
2019-01-21T18:07:03.111Z,68.47
2019-01-21T18:09:31.547Z,59.27
2019-01-21T18:11:59.027Z,57.00
2019-01-21T18:14:26.855Z,61.33
2019-01-21T18:16:55.109Z,69.87
2019-01-21T18:19:23.180Z,60.53
2019-01-21T18:21:51.580Z,67.80
2019-01-21T18:24:19.911Z,56.80
2019-01-21T18:26:48.210Z,59.90
2019-01-21T18:29:15.373Z,70.50
2019-01-21T18:31:43.651Z,89.83
2019-01-21T18:34:11.830Z,87.73
2019-01-21T18:36:40.307Z,84.30
2019-01-21T18:39:11.565Z,74.53
2019-01-21T18:41:39.723Z,74.00
2019-01-21T18:46:41.923Z,79.33
2019-01-21T18:49:50.446Z,68.10
2019-01-21T18:56:07.630Z,59.60
2019-01-21T18:58:48.134Z,61.83
2019-01-21T19:04:18.232Z,56.30
2019-01-21T19:06:46.353Z,65.00
2019-01-21T19:09:14.192Z,67.37
2019-01-21T19:11:42.378Z,70.67
2019-01-21T19:14:10.505Z,71.63
2019-01-21T19:16:38.747Z,64.07
2019-01-21T19:19:07.297Z,66.30
2019-01-21T19:21:35.844Z,66.03
2019-01-21T19:24:44.038Z,67.83
2019-01-21T19:27:12.574Z,65.10
2019-01-21T19:32:35.227Z,77.03
2019-01-21T19:35:43.792Z,65.03
2019-01-21T19:38:51.912Z,68.93
2019-01-21T19:41:32.645Z,82.10
2019-01-21T19:44:41.267Z,146.90
2019-01-21T19:47:10.502Z,124.73
2019-01-21T19:49:38.633Z,83.57
2019-01-21T19:52:26.031Z,71.67
2019-01-21T19:54:54.446Z,83.57
2019-01-21T19:57:23.291Z,71.53
2019-01-21T20:00:03.196Z,70.43
2019-01-21T20:02:44.557Z,73.00
2019-01-21T20:05:32.207Z,64.03
2019-01-21T20:08:02.861Z,69.50
2019-01-21T20:16:21.121Z,70.13
2019-01-21T20:24:37.669Z,57.77
2019-01-21T20:27:06.250Z,65.10
2019-01-21T20:30:14.727Z,67.00
2019-01-21T20:32:44.881Z,70.33
2019-01-21T20:35:53.036Z,70.30
2019-01-21T20:40:54.531Z,67.63
2019-01-21T20:43:43.872Z,66.67
2019-01-21T20:46:12.244Z,80.73
2019-01-21T20:48:41.031Z,74.53
2019-01-21T20:51:49.371Z,78.63
2019-01-21T20:54:17.398Z,68.53
2019-01-21T20:57:26.436Z,94.70
2019-01-21T20:59:54.825Z,69.47
2019-01-21T21:05:33.007Z,77.33
2019-01-21T21:08:40.171Z,65.80
2019-01-21T21:11:07.893Z,63.13
2019-01-21T21:13:55.465Z,72.13
2019-01-21T21:16:23.028Z,66.93
2019-01-21T21:19:31.883Z,76.13
2019-01-21T21:21:59.878Z,77.97
2019-01-21T21:24:47.436Z,74.93
2019-01-21T21:31:05.357Z,69.73
2019-01-21T21:33:53.094Z,68.00
2019-01-21T21:36:21.491Z,75.43
2019-01-21T21:39:09.082Z,72.40
2019-01-21T21:41:37.128Z,70.13
2019-01-21T21:44:25.329Z,78.83
2019-01-21T21:46:53.827Z,77.67
2019-01-21T21:49:22.093Z,72.07
2019-01-21T21:52:30.578Z,73.73
2019-01-21T21:55:39.420Z,64.77
2019-01-21T21:58:49.266Z,71.87
2019-01-21T22:01:57.922Z,74.93
2019-01-21T22:04:38.003Z,72.80
2019-01-21T22:07:18.381Z,69.97
2019-01-21T22:10:26.911Z,75.80
2019-01-21T22:18:28.530Z,71.70
2019-01-21T22:21:36.616Z,71.20
2019-01-21T22:27:13.470Z,69.27
2019-01-21T22:29:42.253Z,63.93
2019-01-21T22:32:50.900Z,70.13
2019-01-21T22:35:18.967Z,73.70
2019-01-21T22:38:29.312Z,65.33
2019-01-21T22:40:57.665Z,62.47
2019-01-21T22:43:26.641Z,71.50
2019-01-21T22:46:35.401Z,65.63
2019-01-21T22:49:05.811Z,68.23
2019-01-21T22:51:34.055Z,65.30
2019-01-21T22:54:02.913Z,69.43
2019-01-21T22:56:31.059Z,61.07
2019-01-21T22:59:39.006Z,73.23
2019-01-21T23:02:26.198Z,59.33
2019-01-21T23:07:51.077Z,66.90
2019-01-21T23:10:20.262Z,70.00
2019-01-21T23:18:39.551Z,61.97
2019-01-21T23:21:07.881Z,64.37
2019-01-21T23:23:55.830Z,72.70
2019-01-21T23:27:04.301Z,72.93
2019-01-21T23:29:32.766Z,68.57
2019-01-21T23:32:01.178Z,68.10
2019-01-21T23:34:29.238Z,74.77
2019-01-21T23:36:56.606Z,69.20
2019-01-21T23:39:25.126Z,67.80
2019-01-21T23:41:53.683Z,74.27
2019-01-21T23:47:36.218Z,76.17
2019-01-21T23:50:44.751Z,68.80
2019-01-21T23:53:52.899Z,67.07
2019-01-21T23:56:21.374Z,72.37
2019-01-21T23:58:49.483Z,72.43
